createdAt,value
2023-12-26T00:00:29.959Z,96099.78
2023-12-26T00:05:32.693Z,96026.56
2023-12-26T00:10:35.683Z,96114.22
2023-12-26T00:15:38.625Z,96115.94
2023-12-26T00:20:44.999Z,96109.94
2023-12-26T00:25:48.302Z,95871.78
2023-12-26T00:30:53.851Z,96055.44
2023-12-26T00:35:58.478Z,96070.78
2023-12-26T00:41:01.138Z,96092.84
2023-12-26T00:46:03.862Z,96074.16
2023-12-26T00:51:07.395Z,96014.56
2023-12-26T00:56:09.987Z,96090.28
2023-12-26T01:01:12.672Z,96030.72
2023-12-26T01:06:16.496Z,96047.72
2023-12-26T01:11:19.263Z,96052.00
2023-12-26T01:16:23.959Z,96084.31
2023-12-26T01:21:26.718Z,96115.00
2023-12-26T01:26:32.248Z,96048.59
2023-12-26T01:31:38.450Z,96097.91
2023-12-26T01:36:42.402Z,96066.41
2023-12-26T01:41:45.123Z,96058.78
2023-12-26T01:46:47.788Z,96043.47
2023-12-26T01:51:53.251Z,96060.47
2023-12-26T01:56:56.252Z,96100.50
2023-12-26T02:01:59.864Z,96090.31
2023-12-26T02:07:03.530Z,96065.63
2023-12-26T02:12:07.503Z,96014.56
2023-12-26T02:17:16.852Z,96101.31
2023-12-26T02:22:19.875Z,96067.25
2023-12-26T02:27:26.720Z,96104.72
2023-12-26T02:32:29.931Z,96094.53
2023-12-26T02:37:32.963Z,96114.97
2023-12-26T02:42:35.589Z,96110.69
2023-12-26T02:47:38.290Z,96099.66
2023-12-26T02:52:43.204Z,96088.59
2023-12-26T02:57:45.832Z,96102.22
2023-12-26T03:02:48.525Z,96077.56
2023-12-26T03:07:51.432Z,96076.72
2023-12-26T03:12:55.345Z,96017.16
2023-12-26T03:17:58.311Z,96103.06
2023-12-26T03:23:01.195Z,96084.34
2023-12-26T03:28:03.939Z,96091.16
2023-12-26T03:33:07.989Z,96058.81
2023-12-26T03:38:10.692Z,96102.19
2023-12-26T03:43:14.632Z,96124.31
2023-12-26T03:48:19.179Z,96086.00
2023-12-26T03:53:22.894Z,96049.44
2023-12-26T03:58:25.599Z,96111.56
2023-12-26T04:03:28.449Z,96029.97
2023-12-26T04:08:31.351Z,96103.97
2023-12-26T04:13:34.058Z,96143.94
2023-12-26T04:18:37.366Z,96127.78
2023-12-26T04:23:40.255Z,96091.19
2023-12-26T04:28:43.513Z,96132.97
2023-12-26T04:33:46.926Z,96109.09
2023-12-26T04:38:50.030Z,96169.53
2023-12-26T04:43:52.745Z,96138.94
2023-12-26T04:48:55.635Z,96148.31
2023-12-26T04:53:58.840Z,96192.63
2023-12-26T04:59:01.974Z,96202.00
2023-12-26T05:04:05.444Z,96177.31
2023-12-26T05:09:08.101Z,96213.09
2023-12-26T05:14:10.800Z,96194.34
2023-12-26T05:19:13.736Z,96171.38
2023-12-26T05:24:16.902Z,96210.56
2023-12-26T05:29:19.693Z,96214.00
2023-12-26T05:34:22.550Z,96213.16
2023-12-26T05:39:25.420Z,96226.78
2023-12-26T05:44:28.245Z,96219.13
2023-12-26T05:49:32.154Z,96220.00
2023-12-26T05:54:34.953Z,96266.03
2023-12-26T05:59:37.906Z,96157.00
2023-12-26T06:04:41.210Z,96261.78
2023-12-26T06:09:44.591Z,96287.34
2023-12-26T06:14:47.574Z,96261.81
2023-12-26T06:19:51.074Z,96207.31
2023-12-26T06:24:53.824Z,96285.69
2023-12-26T06:29:57.694Z,96295.94
2023-12-26T06:35:01.982Z,96325.78
2023-12-26T06:40:06.987Z,96272.06
2023-12-26T06:45:09.969Z,96322.41
2023-12-26T06:50:12.985Z,96313.88
2023-12-26T06:55:28.158Z,95983.41
2023-12-26T07:42:38.241Z,96328.47
2023-12-26T07:48:55.149Z,96437.53
2023-12-26T08:00:37.994Z,96198.91
2023-12-26T08:06:16.528Z,96186.09
2023-12-26T08:53:08.095Z,96263.63
2023-12-26T09:34:26.203Z,96468.41
2023-12-26T09:39:29.311Z,96317.41
2023-12-26T09:44:33.211Z,96523.03
2023-12-26T09:49:38.459Z,96552.16
2023-12-26T09:54:47.620Z,96231.31
2023-12-26T09:59:52.884Z,96656.34
2023-12-26T10:04:56.313Z,96546.16
2023-12-26T10:09:59.527Z,96610.22
2023-12-26T10:15:06.581Z,96658.16
2023-12-26T10:20:09.946Z,96591.50
2023-12-26T10:25:14.390Z,96671.88
2023-12-26T10:30:19.402Z,96553.13
2023-12-26T10:35:22.510Z,96587.28
2023-12-26T10:40:25.114Z,96735.22
2023-12-26T10:45:28.222Z,96729.25
2023-12-26T10:50:36.344Z,96696.78
2023-12-26T10:55:39.208Z,96747.25
2023-12-26T11:00:54.755Z,96738.69
2023-12-26T11:06:53.516Z,96807.16
2023-12-26T11:13:11.172Z,96824.28
2023-12-26T11:19:28.500Z,96844.84
2023-12-26T11:25:47.119Z,96865.44
2023-12-26T11:32:04.231Z,96866.28
2023-12-26T11:38:21.669Z,96885.97
2023-12-26T11:44:38.765Z,96900.50
2023-12-26T11:50:56.271Z,96924.50
2023-12-26T11:57:13.640Z,96933.91
2023-12-26T12:03:30.822Z,96945.84
2023-12-26T12:09:47.678Z,96958.72
2023-12-26T12:16:05.248Z,96970.69
2023-12-26T12:22:22.796Z,96985.22
2023-12-26T12:28:40.196Z,97009.16
2023-12-26T12:35:00.430Z,97013.44
2023-12-26T12:41:18.021Z,97032.25
2023-12-26T12:47:35.014Z,97049.38
2023-12-26T12:53:52.477Z,97049.34
2023-12-26T13:00:10.214Z,97058.75
2023-12-26T13:06:27.736Z,97067.28
2023-12-26T13:12:45.167Z,97077.50
2023-12-26T13:19:02.214Z,97084.38
2023-12-26T13:25:18.904Z,97105.69
2023-12-26T13:31:37.193Z,97113.34
2023-12-26T13:37:57.371Z,97121.88
2023-12-26T13:44:15.557Z,97133.84
2023-12-26T13:50:33.267Z,97143.19
2023-12-26T13:55:54.536Z,97138.81
2023-12-26T14:01:34.668Z,97149.19
2023-12-26T14:06:37.341Z,97045.00
2023-12-26T14:12:28.236Z,97176.47
2023-12-26T14:18:39.777Z,97190.16
2023-12-26T14:55:26.882Z,97223.94
2023-12-26T15:01:06.986Z,97254.84
2023-12-26T15:06:18.086Z,97222.97
2023-12-26T15:11:40.264Z,97102.47
2023-12-26T15:16:42.926Z,97259.78
2023-12-26T15:21:46.064Z,97275.16
2023-12-26T15:26:48.979Z,97277.72
2023-12-26T15:31:52.849Z,97271.69
2023-12-26T15:36:55.554Z,97182.94
2023-12-26T15:41:58.199Z,97210.44
2023-12-26T15:47:00.920Z,97279.13
2023-12-26T15:52:03.644Z,97291.16
2023-12-26T15:57:06.351Z,97311.72
2023-12-26T16:02:09.017Z,97283.19
2023-12-26T16:07:11.668Z,97283.25
2023-12-26T16:12:14.331Z,97267.75
2023-12-26T16:17:17.092Z,97306.47
2023-12-26T16:22:20.151Z,97275.50
2023-12-26T16:27:22.867Z,97291.88
2023-12-26T16:32:25.510Z,97304.66
2023-12-26T16:37:28.165Z,97282.34
2023-12-26T16:42:30.862Z,97296.13
2023-12-26T16:47:33.944Z,97316.84
2023-12-26T16:52:37.004Z,97248.81
2023-12-26T16:57:39.691Z,97316.84
2023-12-26T17:02:42.292Z,97297.78
2023-12-26T17:07:45.249Z,97300.34
2023-12-26T17:12:48.445Z,97327.00
2023-12-26T17:17:51.258Z,97309.75
2023-12-26T17:22:54.220Z,97312.34
2023-12-26T17:27:57.314Z,97308.09
2023-12-26T17:33:00.993Z,97335.50
2023-12-26T17:38:06.190Z,97275.19
2023-12-26T17:43:08.925Z,97307.97
2023-12-26T17:48:11.686Z,97347.53
2023-12-26T17:53:14.437Z,97352.53
2023-12-26T17:58:17.176Z,97293.25
2023-12-26T18:03:19.998Z,97339.66
2023-12-26T18:08:22.629Z,97348.25
2023-12-26T18:13:25.139Z,97337.00
2023-12-26T18:18:30.550Z,97313.66
2023-12-26T18:23:40.804Z,97338.72
2023-12-26T18:28:44.548Z,97355.94
2023-12-26T18:33:47.310Z,97376.50
2023-12-26T18:38:51.438Z,97371.38
2023-12-26T18:43:54.191Z,97367.03
2023-12-26T18:48:57.010Z,97384.06
2023-12-26T18:53:59.908Z,97335.97
2023-12-26T18:59:03.229Z,97345.56
2023-12-26T19:04:06.147Z,97318.94
2023-12-26T19:09:12.633Z,97322.38
2023-12-26T19:14:15.457Z,97356.72
2023-12-26T19:19:20.073Z,97362.75
2023-12-26T19:24:23.008Z,97343.69
2023-12-26T19:29:25.708Z,97379.97
2023-12-26T19:34:28.308Z,97333.41
2023-12-26T19:39:31.059Z,97370.59
2023-12-26T19:44:35.127Z,97346.38
2023-12-26T19:49:38.868Z,97342.94
2023-12-26T19:54:44.660Z,97334.38
2023-12-26T19:59:47.233Z,97349.09
2023-12-26T20:04:49.871Z,97349.97
2023-12-26T20:09:52.513Z,97318.94
2023-12-26T20:14:55.221Z,97293.00
2023-12-26T20:19:58.122Z,97287.03
2023-12-26T20:25:00.891Z,97342.94
2023-12-26T20:30:03.779Z,97346.38
2023-12-26T20:35:08.187Z,97329.19
2023-12-26T20:40:11.402Z,97311.16
2023-12-26T20:45:14.065Z,97321.59
2023-12-26T20:50:16.904Z,97343.09
2023-12-26T20:55:19.399Z,97340.53
2023-12-26T21:00:21.956Z,97300.75
2023-12-26T21:05:24.468Z,97343.94
2023-12-26T21:10:29.096Z,97310.41
2023-12-26T21:15:31.666Z,97312.03
2023-12-26T21:20:34.248Z,97332.78
2023-12-26T21:25:36.778Z,97344.03
2023-12-26T21:30:39.405Z,97314.69
2023-12-26T21:35:42.087Z,97342.25
2023-12-26T21:40:49.095Z,97354.28
2023-12-26T21:45:51.816Z,97304.38
2023-12-26T21:50:54.376Z,97353.31
2023-12-26T21:55:56.860Z,97299.13
2023-12-26T22:00:59.376Z,97328.41
2023-12-26T22:06:02.135Z,97332.75
2023-12-26T22:11:04.994Z,97349.09
2023-12-26T22:16:07.638Z,97297.44
2023-12-26T22:21:10.384Z,97341.34
2023-12-26T22:26:12.886Z,97262.19
2023-12-26T22:31:23.256Z,97333.66
2023-12-26T22:36:27.212Z,97350.00
2023-12-26T22:41:32.746Z,97323.28
2023-12-26T22:46:35.326Z,97322.47
2023-12-26T22:51:37.928Z,97336.34
2023-12-26T22:56:41.833Z,97341.47
2023-12-26T23:01:46.739Z,97326.09
2023-12-26T23:06:49.466Z,97311.38
2023-12-26T23:11:52.981Z,97327.81
2023-12-26T23:16:55.535Z,97334.56
2023-12-26T23:21:58.083Z,97318.31
2023-12-26T23:27:00.632Z,97290.63
2023-12-26T23:32:03.829Z,97325.97
2023-12-26T23:37:06.589Z,97290.63
2023-12-26T23:42:09.147Z,97315.66
2023-12-26T23:47:15.141Z,97346.66
2023-12-26T23:52:17.952Z,97348.38
2023-12-26T23:57:20.518Z,97331.16
